Time;durP1;ratioP1;P1;durP2;ratioP2;P2;SDS_P1;SDS_P2;PMS_P1;PMS_P2;Temp;Humidity;BMP_temperature;BMP_pressure;BME280_temperature;BME280_humidity;BME280_pressure;Samples;Min_cycle;Max_cycle;Signal;HPM_P1;HPM_P2
2022/01/09 00:00:01;;;;;;;0.10;0.00;;;7.10;98.20;;;;;;6182562;28;20149;-83
2022/01/09 00:03:03;;;;;;;1.02;0.10;;;7.20;98.10;;;;;;6182461;28;20106;-85
2022/01/09 00:06:07;;;;;;;0.22;0.10;;;7.20;98.20;;;;;;6182217;28;20050;-84
2022/01/09 00:09:09;;;;;;;0.00;0.00;;;7.20;98.30;;;;;;6182420;28;20058;-83
2022/01/09 00:12:11;;;;;;;0.63;0.13;;;7.20;98.40;;;;;;6193212;28;20051;-83
2022/01/09 00:15:13;;;;;;;0.00;0.00;;;7.30;98.30;;;;;;6203625;28;20133;-84
2022/01/09 00:18:15;;;;;;;0.10;0.00;;;7.20;98.20;;;;;;6204801;28;20443;-84
2022/01/09 00:21:19;;;;;;;0.10;0.05;;;7.20;98.20;;;;;;6205200;28;20120;-84
2022/01/09 00:24:21;;;;;;;0.00;0.00;;;7.30;98.20;;;;;;6205764;28;20484;-83
2022/01/09 00:27:23;;;;;;;0.20;0.10;;;7.20;98.10;;;;;;6205448;28;20046;-84
2022/01/09 00:30:25;;;;;;;0.13;0.10;;;7.30;98.20;;;;;;6202607;28;20113;-84
2022/01/09 00:33:27;;;;;;;0.43;0.15;;;7.20;98.10;;;;;;6206205;28;20181;-85
2022/01/09 00:36:30;;;;;;;0.00;0.00;;;7.10;98.00;;;;;;6205646;28;20058;-84
2022/01/09 00:39:32;;;;;;;0.30;0.00;;;7.20;98.10;;;;;;6204720;28;20047;-84
2022/01/09 00:42:34;;;;;;;0.43;0.00;;;7.30;98.40;;;;;;6191473;28;20064;-85
2022/01/09 00:45:36;;;;;;;0.35;0.10;;;7.30;98.50;;;;;;6204150;28;20104;-84
2022/01/09 00:48:38;;;;;;;0.13;0.00;;;7.30;98.60;;;;;;6207453;28;20053;-85
2022/01/09 00:51:41;;;;;;;0.00;0.00;;;7.40;98.70;;;;;;6205412;28;20511;-84
2022/01/09 00:54:43;;;;;;;0.05;0.00;;;7.40;98.50;;;;;;6205963;28;20050;-85
2022/01/09 00:57:45;;;;;;;0.22;0.00;;;7.40;98.70;;;;;;6205355;28;20125;-85
2022/01/09 01:00:46;;;;;;;0.20;0.00;;;7.50;98.80;;;;;;6206836;28;20050;-84
2022/01/09 01:03:48;;;;;;;0.80;0.05;;;7.50;98.50;;;;;;6205746;28;20105;-84
2022/01/09 01:06:51;;;;;;;1.45;0.00;;;7.50;98.60;;;;;;6207124;28;20105;-84
2022/01/09 01:09:53;;;;;;;0.00;0.00;;;7.60;98.20;;;;;;6206597;28;20038;-84
2022/01/09 01:12:55;;;;;;;0.03;0.00;;;7.60;98.20;;;;;;6198260;28;20504;-83
2022/01/09 01:15:58;;;;;;;0.10;0.00;;;7.70;98.10;;;;;;6207647;28;20085;-83
2022/01/09 01:19:02;;;;;;;0.00;0.00;;;7.70;98.10;;;;;;6227974;28;20048;-85
2022/01/09 01:22:06;;;;;;;1.65;0.08;;;7.80;97.80;;;;;;6215727;28;20046;-85
2022/01/09 01:25:09;;;;;;;0.10;0.00;;;7.80;97.80;;;;;;6206769;28;20047;-86
2022/01/09 01:28:10;;;;;;;0.10;0.00;;;7.90;97.40;;;;;;6205284;28;20161;-84
2022/01/09 01:31:15;;;;;;;0.20;0.03;;;7.90;97.20;;;;;;6204409;28;20158;-86
2022/01/09 01:34:17;;;;;;;0.10;0.00;;;7.90;97.50;;;;;;6204895;28;20092;-85
2022/01/09 01:37:20;;;;;;;0.00;0.00;;;7.90;96.70;;;;;;6206241;28;20070;-86
2022/01/09 01:40:23;;;;;;;1.10;0.10;;;7.90;97.00;;;;;;6206544;28;20046;-83
2022/01/09 01:43:25;;;;;;;0.17;0.08;;;7.90;96.90;;;;;;6195429;28;20046;-84
2022/01/09 01:46:27;;;;;;;0.08;0.00;;;7.80;97.00;;;;;;6203885;28;20048;-86
2022/01/09 01:49:28;;;;;;;0.22;0.10;;;7.80;96.70;;;;;;6203836;28;20061;-84
2022/01/09 01:52:36;;;;;;;0.08;0.00;;;7.80;96.70;;;;;;6204668;28;20147;-84
2022/01/09 01:55:40;;;;;;;0.10;0.00;;;7.80;96.70;;;;;;6199513;28;20047;-84
2022/01/09 01:58:41;;;;;;;2.03;0.10;;;7.80;96.40;;;;;;6189017;28;20058;-84
2022/01/09 02:01:43;;;;;;;2.17;0.17;;;7.80;96.40;;;;;;6179436;28;20416;-84
2022/01/09 02:04:45;;;;;;;0.55;0.20;;;7.80;96.30;;;;;;6179708;28;20506;-84
2022/01/09 02:07:51;;;;;;;0.63;0.10;;;7.90;96.10;;;;;;6178965;28;20129;-84
2022/01/09 02:10:52;;;;;;;0.20;0.20;;;7.90;96.40;;;;;;6185434;28;20068;-83
2022/01/09 02:13:54;;;;;;;0.30;0.10;;;7.90;96.10;;;;;;6183719;28;20526;-85
2022/01/09 02:16:56;;;;;;;0.55;0.10;;;8.00;96.20;;;;;;6181045;28;20114;-82
2022/01/09 02:19:59;;;;;;;0.40;0.30;;;8.00;96.30;;;;;;6182112;28;20047;-81
2022/01/09 02:23:01;;;;;;;2.90;0.40;;;8.10;96.00;;;;;;6183912;28;20130;-83
2022/01/09 02:26:03;;;;;;;0.10;0.03;;;8.00;95.60;;;;;;6185738;28;20042;-84
2022/01/09 02:29:05;;;;;;;0.30;0.00;;;7.90;95.70;;;;;;6184423;28;20051;-84
2022/01/09 02:32:08;;;;;;;0.03;0.00;;;8.00;95.40;;;;;;6183711;28;20058;-84
2022/01/09 02:35:11;;;;;;;0.10;0.10;;;8.00;95.50;;;;;;6186661;28;20057;-81
2022/01/09 02:38:13;;;;;;;0.20;0.00;;;8.00;95.40;;;;;;6186970;28;20284;-84
2022/01/09 02:41:15;;;;;;;0.38;0.00;;;8.10;95.40;;;;;;6196509;28;20051;-80
2022/01/09 02:44:16;;;;;;;0.90;0.10;;;8.00;95.10;;;;;;6203421;28;20043;-84
2022/01/09 02:47:20;;;;;;;0.13;0.00;;;8.00;94.90;;;;;;6211774;28;20054;-82
2022/01/09 02:50:35;;;;;;;0.45;0.17;;;8.00;94.80;;;;;;6213303;28;20042;-80
2022/01/09 02:53:38;;;;;;;0.15;0.10;;;8.10;94.70;;;;;;6213165;28;20523;-80
2022/01/09 02:56:40;;;;;;;0.10;0.10;;;8.00;94.60;;;;;;6212442;28;20046;-79
2022/01/09 02:59:41;;;;;;;0.45;0.10;;;8.10;94.70;;;;;;6211070;28;20258;-82
2022/01/09 03:02:44;;;;;;;2.28;0.10;;;8.00;94.60;;;;;;6212361;28;20144;-79
2022/01/09 03:05:47;;;;;;;0.00;0.00;;;8.00;94.70;;;;;;6210621;28;20045;-82
2022/01/09 03:08:49;;;;;;;0.00;0.00;;;7.90;94.40;;;;;;6211711;28;20057;-83
2022/01/09 03:11:51;;;;;;;0.00;0.00;;;8.00;94.30;;;;;;6203852;28;20122;-82
2022/01/09 03:14:52;;;;;;;1.00;0.10;;;7.90;94.50;;;;;;6191716;28;20043;-83
2022/01/09 03:17:54;;;;;;;0.10;0.00;;;7.90;94.40;;;;;;6187612;28;20110;-80
2022/01/09 03:20:57;;;;;;;0.75;0.30;;;7.80;94.40;;;;;;6188337;28;20137;-80
2022/01/09 03:23:59;;;;;;;0.30;0.10;;;7.80;95.50;;;;;;6186484;28;20053;-81
2022/01/09 03:27:01;;;;;;;6.30;0.17;;;7.60;95.60;;;;;;6190014;28;20053;-81
2022/01/09 03:30:05;;;;;;;0.20;0.03;;;7.50;96.30;;;;;;6188055;28;20046;-81
2022/01/09 03:33:07;;;;;;;0.63;0.10;;;7.40;96.70;;;;;;6200511;28;20129;-81
2022/01/09 03:36:10;;;;;;;1.80;0.38;;;7.40;96.60;;;;;;6208880;28;20081;-81
2022/01/09 03:39:11;;;;;;;5.85;0.20;;;7.20;96.70;;;;;;6207232;28;20197;-82
2022/01/09 03:42:14;;;;;;;0.00;0.00;;;7.10;97.00;;;;;;6199966;28;20047;-86
2022/01/09 03:45:16;;;;;;;0.00;0.00;;;7.10;97.20;;;;;;6203680;28;20050;-86
2022/01/09 03:48:18;;;;;;;1.08;0.10;;;7.00;97.30;;;;;;6204792;28;20053;-84
2022/01/09 03:51:24;;;;;;;0.00;0.00;;;6.90;97.30;;;;;;6204621;28;20124;-85
2022/01/09 03:54:26;;;;;;;0.28;0.10;;;6.80;97.50;;;;;;6204602;28;20053;-88
2022/01/09 03:57:28;;;;;;;1.35;0.20;;;6.90;97.80;;;;;;6202726;28;20078;-84
2022/01/09 04:00:29;;;;;;;0.13;0.00;;;6.90;97.80;;;;;;6180481;28;20073;-85
2022/01/09 04:03:31;;;;;;;0.03;0.00;;;6.90;98.00;;;;;;6193605;28;20088;-84
2022/01/09 04:06:34;;;;;;;3.30;0.20;;;6.90;97.90;;;;;;6204240;28;20050;-85
2022/01/09 04:09:39;;;;;;;0.10;0.00;;;6.80;98.00;;;;;;6204529;28;20047;-85
2022/01/09 04:12:47;;;;;;;0.08;0.00;;;6.80;98.00;;;;;;6194681;28;20046;-84
2022/01/09 04:15:49;;;;;;;6.32;0.10;;;6.80;97.90;;;;;;6180143;28;20043;-85
2022/01/09 04:18:51;;;;;;;0.13;0.03;;;6.80;98.00;;;;;;6179480;28;20058;-84
2022/01/09 04:21:54;;;;;;;0.43;0.10;;;6.70;97.80;;;;;;6179711;28;20065;-85
2022/01/09 04:24:56;;;;;;;14.65;1.75;;;6.70;97.90;;;;;;6179590;28;20436;-85
2022/01/09 04:27:58;;;;;;;0.40;0.10;;;6.70;97.90;;;;;;6181101;28;20047;-85
2022/01/09 04:31:00;;;;;;;0.00;0.00;;;6.70;97.80;;;;;;6181860;28;20126;-84
2022/01/09 04:34:01;;;;;;;0.28;0.10;;;6.60;97.80;;;;;;6182371;28;20045;-84
2022/01/09 04:37:05;;;;;;;2.20;0.75;;;6.50;97.50;;;;;;6183269;28;20050;-85
2022/01/09 04:40:11;;;;;;;0.10;0.00;;;6.30;97.50;;;;;;6182624;28;20054;-82
2022/01/09 04:43:14;;;;;;;0.05;0.00;;;6.20;97.40;;;;;;6195850;28;20043;-84
2022/01/09 04:46:22;;;;;;;0.00;0.00;;;6.10;97.30;;;;;;6207996;28;20447;-84
2022/01/09 04:49:27;;;;;;;0.05;0.00;;;6.00;97.20;;;;;;6224396;28;20054;-84
2022/01/09 04:52:34;;;;;;;0.10;0.00;;;5.90;97.60;;;;;;6221498;28;20061;-85
2022/01/09 04:55:37;;;;;;;0.08;0.00;;;5.80;97.80;;;;;;6209874;28;20042;-85
2022/01/09 04:58:39;;;;;;;0.55;0.00;;;5.80;98.00;;;;;;6206070;28;20500;-85
2022/01/09 05:01:40;;;;;;;0.00;0.00;;;5.80;98.00;;;;;;6204068;28;20500;-85
2022/01/09 05:04:42;;;;;;;0.20;0.00;;;5.80;98.10;;;;;;6204597;28;20150;-86
2022/01/09 05:07:46;;;;;;;0.30;0.00;;;5.80;98.20;;;;;;6206612;28;20198;-86
2022/01/09 05:10:48;;;;;;;1.30;0.75;;;5.80;98.30;;;;;;6203866;28;20042;-86
2022/01/09 05:13:49;;;;;;;0.00;0.00;;;5.90;98.40;;;;;;6197605;28;20042;-86
2022/01/09 05:16:52;;;;;;;0.08;0.00;;;5.80;98.30;;;;;;6204383;28;20056;-86
2022/01/09 05:19:57;;;;;;;0.77;0.10;;;5.90;98.20;;;;;;6202624;28;20046;-86
2022/01/09 05:23:00;;;;;;;1.70;0.73;;;5.90;98.10;;;;;;6206245;28;20046;-85
2022/01/09 05:26:02;;;;;;;17.35;10.18;;;5.90;97.90;;;;;;6203345;28;20163;-84
2022/01/09 05:29:04;;;;;;;0.60;0.38;;;5.90;97.80;;;;;;6203830;28;20057;-85
2022/01/09 05:32:07;;;;;;;0.28;0.13;;;5.90;97.70;;;;;;6203402;28;20097;-84
2022/01/09 05:35:10;;;;;;;0.60;0.20;;;5.90;97.80;;;;;;6202588;28;20460;-85
2022/01/09 05:38:14;;;;;;;1.88;0.63;;;5.90;97.60;;;;;;6203056;28;20042;-85
2022/01/09 05:41:16;;;;;;;0.10;0.10;;;5.90;97.60;;;;;;6202331;28;20046;-85
2022/01/09 05:44:19;;;;;;;0.88;0.22;;;5.90;97.50;;;;;;6195320;28;20046;-85
2022/01/09 05:47:20;;;;;;;0.00;0.00;;;5.80;97.50;;;;;;6202356;28;20057;-86
2022/01/09 05:50:24;;;;;;;1.08;0.22;;;5.80;97.50;;;;;;6201886;28;20044;-86
2022/01/09 05:53:27;;;;;;;0.50;0.10;;;5.80;97.50;;;;;;6201896;28;20050;-85
2022/01/09 05:56:29;;;;;;;1.50;0.38;;;5.90;97.30;;;;;;6202468;28;20057;-85
2022/01/09 05:59:30;;;;;;;2.38;0.43;;;5.90;97.50;;;;;;6221902;23;20049;-78
2022/01/09 06:02:32;;;;;;;0.45;0.20;;;5.90;97.40;;;;;;6225168;28;20124;-78
2022/01/09 06:05:34;;;;;;;3.10;0.40;;;6.00;97.30;;;;;;6201266;28;20128;-79
2022/01/09 06:08:37;;;;;;;1.30;0.32;;;5.90;97.10;;;;;;6206059;28;20061;-79
2022/01/09 06:11:39;;;;;;;2.70;0.30;;;5.90;97.20;;;;;;6219618;28;20053;-80
2022/01/09 06:14:41;;;;;;;1.60;0.60;;;6.00;97.30;;;;;;6225440;28;20042;-80
2022/01/09 06:17:44;;;;;;;1.17;0.20;;;6.00;96.90;;;;;;6231186;28;20057;-79
2022/01/09 06:20:46;;;;;;;0.20;0.20;;;6.00;96.70;;;;;;6232705;28;20058;-79
2022/01/09 06:23:49;;;;;;;1.75;0.50;;;5.90;96.60;;;;;;6241235;28;20042;-78
2022/01/09 06:26:51;;;;;;;6.25;0.77;;;5.90;96.70;;;;;;6245740;28;20538;-79
2022/01/09 06:29:52;;;;;;;4.50;0.47;;;5.90;96.80;;;;;;6232016;28;20041;-79
2022/01/09 06:32:54;;;;;;;3.80;1.15;;;6.00;96.80;;;;;;6231727;28;20060;-79
2022/01/09 06:35:56;;;;;;;6.32;1.00;;;6.00;96.60;;;;;;6232542;28;20060;-79
2022/01/09 06:38:59;;;;;;;11.25;1.05;;;6.00;96.60;;;;;;6232210;28;20077;-79
2022/01/09 06:42:01;;;;;;;8.88;1.25;;;6.00;96.30;;;;;;6227133;28;20053;-78
2022/01/09 06:45:03;;;;;;;20.00;3.50;;;6.00;96.20;;;;;;6228758;28;20411;-81
2022/01/09 06:48:05;;;;;;;5.18;0.75;;;6.10;96.10;;;;;;6231840;28;20042;-80
2022/01/09 06:51:07;;;;;;;7.20;1.05;;;6.00;95.90;;;;;;6231637;28;20695;-81
2022/01/09 06:54:13;;;;;;;3.45;0.85;;;6.00;95.70;;;;;;6231517;28;20038;-80
2022/01/09 06:57:15;;;;;;;2.00;0.55;;;6.00;95.40;;;;;;6231525;28;20053;-80
2022/01/09 07:00:17;;;;;;;12.48;1.63;;;6.00;95.50;;;;;;6231593;28;20104;-80
2022/01/09 07:03:19;;;;;;;1.95;0.50;;;6.00;95.40;;;;;;6231181;28;20053;-80
2022/01/09 07:06:20;;;;;;;2.03;0.70;;;6.00;95.00;;;;;;6230690;28;20089;-80
2022/01/09 07:09:24;;;;;;;2.35;1.20;;;6.10;95.10;;;;;;6230599;28;20054;-79
2022/01/09 07:12:25;;;;;;;4.50;0.70;;;6.10;95.10;;;;;;6223599;28;20054;-81
2022/01/09 07:15:27;;;;;;;9.02;1.05;;;6.10;95.00;;;;;;6230593;28;20157;-80
2022/01/09 07:18:29;;;;;;;6.93;1.48;;;6.10;95.30;;;;;;6230400;28;20053;-81
2022/01/09 07:21:31;;;;;;;7.78;0.80;;;6.10;94.90;;;;;;6229270;28;20430;-80
2022/01/09 07:24:34;;;;;;;5.45;1.30;;;6.10;94.90;;;;;;6230044;28;20104;-79
2022/01/09 07:27:36;;;;;;;7.22;1.33;;;6.10;95.20;;;;;;6230225;28;20566;-81
2022/01/09 07:30:38;;;;;;;6.45;0.85;;;6.00;95.30;;;;;;6229315;28;20423;-80
2022/01/09 07:33:40;;;;;;;4.95;1.77;;;5.90;95.20;;;;;;6229597;28;20093;-80
2022/01/09 07:36:42;;;;;;;8.40;1.15;;;5.90;95.40;;;;;;6230254;28;20050;-80
2022/01/09 07:39:45;;;;;;;8.20;1.15;;;5.90;95.50;;;;;;6229196;28;20052;-80
2022/01/09 07:42:47;;;;;;;6.53;0.75;;;5.90;95.40;;;;;;6217334;28;20062;-81
2022/01/09 07:45:49;;;;;;;7.53;1.33;;;5.90;95.90;;;;;;6229449;28;20038;-81
2022/01/09 07:48:50;;;;;;;6.45;1.38;;;5.90;96.20;;;;;;6228800;28;20046;-81
2022/01/09 07:51:52;;;;;;;5.13;1.10;;;5.90;96.50;;;;;;6229073;28;20164;-81
2022/01/09 07:54:55;;;;;;;11.52;1.42;;;5.80;96.80;;;;;;6233480;28;20038;-81
2022/01/09 07:57:57;;;;;;;7.68;2.95;;;5.80;97.10;;;;;;6205915;28;20043;-81
2022/01/09 08:00:59;;;;;;;5.30;0.70;;;5.80;97.20;;;;;;6205728;28;20056;-80
2022/01/09 08:04:01;;;;;;;9.93;1.42;;;5.80;97.20;;;;;;6202963;28;20046;-79
2022/01/09 08:07:03;;;;;;;4.78;1.30;;;5.80;97.30;;;;;;6199978;28;20111;-79
2022/01/09 08:10:07;;;;;;;6.93;1.05;;;5.70;97.40;;;;;;6200019;28;20496;-80
2022/01/09 08:13:09;;;;;;;8.88;1.50;;;5.70;97.10;;;;;;6216867;28;20057;-80
2022/01/09 08:16:10;;;;;;;11.82;1.85;;;5.70;97.10;;;;;;6223694;28;20046;-79
2022/01/09 08:19:12;;;;;;;3.78;1.40;;;5.80;96.60;;;;;;6224029;28;20060;-80
2022/01/09 08:22:14;;;;;;;6.55;1.35;;;5.80;96.10;;;;;;6224483;28;20129;-80
2022/01/09 08:25:19;;;;;;;10.15;1.83;;;5.80;96.10;;;;;;6223969;28;20532;-80
2022/01/09 08:28:21;;;;;;;13.25;1.40;;;5.90;96.00;;;;;;6226421;28;20104;-79
2022/01/09 08:31:23;;;;;;;8.60;1.55;;;5.90;95.70;;;;;;6225930;28;20707;-80
2022/01/09 08:34:25;;;;;;;4.40;1.65;;;5.90;95.30;;;;;;6225453;28;20052;-79
2022/01/09 08:37:27;;;;;;;9.73;1.67;;;5.80;95.50;;;;;;6226082;28;20050;-79
2022/01/09 08:40:30;;;;;;;5.65;0.95;;;5.90;95.60;;;;;;6225480;28;20461;-79
2022/01/09 08:43:32;;;;;;;9.23;1.42;;;5.90;95.20;;;;;;6216506;28;20046;-80
2022/01/09 08:46:36;;;;;;;7.03;1.58;;;5.90;95.20;;;;;;6225822;28;20066;-80
2022/01/09 08:49:38;;;;;;;2.38;0.77;;;6.00;94.90;;;;;;6226227;28;20056;-79
2022/01/09 08:52:40;;;;;;;10.80;1.42;;;5.90;94.60;;;;;;6226187;28;20058;-79
2022/01/09 08:55:43;;;;;;;8.25;2.78;;;5.90;94.80;;;;;;6225073;28;20038;-78
2022/01/09 08:58:45;;;;;;;11.27;2.60;;;5.80;94.70;;;;;;6224600;28;20048;-78
2022/01/09 09:01:47;;;;;;;20.48;5.03;;;5.80;95.00;;;;;;6224946;28;20041;-80
2022/01/09 09:04:49;;;;;;;15.60;3.97;;;5.80;94.90;;;;;;6225637;28;20050;-79
2022/01/09 09:07:51;;;;;;;17.27;2.35;;;5.80;95.00;;;;;;6225908;28;20052;-79
2022/01/09 09:10:54;;;;;;;19.52;2.85;;;5.80;95.10;;;;;;6225032;28;20048;-79
2022/01/09 09:13:56;;;;;;;7.30;0.98;;;5.90;94.80;;;;;;6216591;28;20041;-79
2022/01/09 09:17:06;;;;;;;7.22;1.45;;;6.00;94.50;;;;;;6225338;28;20092;-79
2022/01/09 09:20:09;;;;;;;8.48;1.83;;;6.00;94.10;;;;;;6224415;28;20156;-79
2022/01/09 09:23:11;;;;;;;6.50;1.38;;;5.90;94.10;;;;;;6224679;28;20053;-78
2022/01/09 09:26:16;;;;;;;15.35;3.10;;;5.90;93.70;;;;;;6224614;28;20412;-78
2022/01/09 09:29:18;;;;;;;8.55;1.20;;;5.90;93.90;;;;;;6210056;28;20046;-79
2022/01/09 09:32:20;;;;;;;10.07;1.48;;;5.80;93.60;;;;;;6215046;28;20050;-80
2022/01/09 09:35:22;;;;;;;7.28;2.28;;;5.90;93.70;;;;;;6227935;28;20100;-79
2022/01/09 09:38:23;;;;;;;5.30;1.90;;;5.90;93.50;;;;;;6228554;28;20056;-79
2022/01/09 09:41:27;;;;;;;1.67;0.70;;;5.90;93.30;;;;;;6223875;28;20073;-80
2022/01/09 09:44:29;;;;;;;5.47;0.98;;;5.80;93.00;;;;;;6219460;28;20108;-80
2022/01/09 09:47:33;;;;;;;8.65;1.98;;;5.80;93.00;;;;;;6227293;28;20057;-79
2022/01/09 09:50:35;;;;;;;3.90;0.90;;;5.90;92.90;;;;;;6227959;28;20050;-80
2022/01/09 09:53:38;;;;;;;8.93;0.60;;;6.00;92.60;;;;;;6227602;28;20042;-80
2022/01/09 09:56:41;;;;;;;3.38;0.38;;;6.00;92.90;;;;;;6220261;28;20050;-80
2022/01/09 09:59:43;;;;;;;6.07;0.88;;;6.10;92.40;;;;;;6231173;28;20046;-80
2022/01/09 10:02:47;;;;;;;10.35;1.15;;;6.10;92.40;;;;;;6215879;28;20057;-80
2022/01/09 10:05:48;;;;;;;8.13;2.15;;;6.30;92.70;;;;;;6208560;28;20042;-79
2022/01/09 10:08:50;;;;;;;3.83;0.85;;;6.40;92.60;;;;;;6204289;28;20250;-79
2022/01/09 10:11:56;;;;;;;6.80;1.25;;;6.50;92.50;;;;;;6219009;28;20042;-79
2022/01/09 10:14:59;;;;;;;6.03;1.90;;;6.60;91.90;;;;;;6215820;28;20056;-80
2022/01/09 10:18:01;;;;;;;6.72;1.15;;;6.60;91.80;;;;;;6204153;28;20045;-79
2022/01/09 10:21:07;;;;;;;2.95;0.90;;;6.70;91.90;;;;;;6204766;28;20057;-79
2022/01/09 10:24:11;;;;;;;4.30;1.42;;;6.70;91.80;;;;;;6203981;28;20046;-80
2022/01/09 10:27:27;;;;;;;8.27;2.10;;;6.80;91.70;;;;;;6203950;28;20050;-80
2022/01/09 10:30:31;;;;;;;6.53;1.88;;;6.90;92.00;;;;;;6203896;28;20114;-79
2022/01/09 10:33:37;;;;;;;8.98;0.98;;;7.00;91.30;;;;;;6203473;28;20046;-79
2022/01/09 10:36:41;;;;;;;17.15;1.15;;;7.10;91.30;;;;;;6203635;28;20050;-80
2022/01/09 10:39:43;;;;;;;13.48;1.88;;;7.20;90.90;;;;;;6208113;28;20053;-79
2022/01/09 10:43:00;;;;;;;4.95;1.50;;;7.40;91.10;;;;;;6209756;28;20046;-80
2022/01/09 10:46:03;;;;;;;5.70;1.30;;;7.40;90.30;;;;;;6228565;28;20126;-79
2022/01/09 10:49:04;;;;;;;7.93;1.60;;;7.50;90.30;;;;;;6227261;28;20573;-80
2022/01/09 10:52:14;;;;;;;12.15;1.25;;;7.60;90.40;;;;;;6227032;28;20460;-80
2022/01/09 10:55:16;;;;;;;5.32;1.65;;;7.60;90.30;;;;;;6228492;28;20516;-81
2022/01/09 10:58:23;;;;;;;3.15;1.45;;;7.70;89.50;;;;;;6219192;28;20053;-79
2022/01/09 11:01:26;;;;;;;8.75;1.10;;;7.60;88.80;;;;;;6228680;28;20096;-79
2022/01/09 11:04:28;;;;;;;8.50;1.13;;;7.50;88.70;;;;;;6226581;28;20070;-79
2022/01/09 11:07:30;;;;;;;2.70;0.90;;;7.50;88.40;;;;;;6224691;28;20049;-80
2022/01/09 11:10:33;;;;;;;11.00;2.10;;;7.50;89.40;;;;;;6225521;28;20053;-80
2022/01/09 11:13:38;;;;;;;6.47;1.00;;;7.70;89.30;;;;;;6218271;28;20046;-79
2022/01/09 11:16:43;;;;;;;5.22;1.58;;;7.80;90.00;;;;;;6226154;28;20046;-78
2022/01/09 11:19:45;;;;;;;2.95;1.10;;;7.80;88.70;;;;;;6226590;28;20507;-79
2022/01/09 11:22:47;;;;;;;7.45;1.92;;;7.80;89.30;;;;;;6219932;28;20113;-79
2022/01/09 11:25:53;;;;;;;82.18;26.65;;;7.80;88.50;;;;;;6201252;28;20492;-81
2022/01/09 11:28:58;;;;;;;189.40;62.75;;;7.80;89.20;;;;;;6203145;28;20047;-79
2022/01/09 11:32:13;;;;;;;56.70;17.90;;;7.90;89.80;;;;;;6202603;28;20050;-79
2022/01/09 11:35:26;;;;;;;10.50;4.20;;;8.00;89.90;;;;;;6202240;28;20050;-79
2022/01/09 11:38:36;;;;;;;17.45;2.45;;;8.10;88.50;;;;;;6202948;28;20085;-79
2022/01/09 11:41:39;;;;;;;6.90;1.27;;;8.10;87.90;;;;;;6214683;28;20069;-80
2022/01/09 11:44:50;;;;;;;6.32;0.90;;;8.30;87.00;;;;;;6220342;28;20046;-80
2022/01/09 11:47:52;;;;;;;11.32;1.33;;;8.40;85.90;;;;;;6226879;28;20057;-79
2022/01/09 11:51:14;;;;;;;10.85;2.58;;;8.40;84.40;;;;;;6226505;28;20053;-79
2022/01/09 11:54:18;;;;;;;10.25;1.13;;;8.40;84.80;;;;;;6220895;28;20045;-79
2022/01/09 11:57:36;;;;;;;4.50;1.00;;;8.20;85.80;;;;;;6223545;28;20053;-79
2022/01/09 12:00:42;;;;;;;3.47;0.73;;;8.10;85.70;;;;;;6229846;28;20103;-78
2022/01/09 12:03:44;;;;;;;3.75;0.90;;;8.30;87.70;;;;;;6225376;28;20053;-79
2022/01/09 12:06:46;;;;;;;12.63;1.90;;;8.60;86.40;;;;;;6224255;28;20038;-77
2022/01/09 12:09:50;;;;;;;4.43;1.52;;;8.80;86.60;;;;;;6223103;28;20184;-76
2022/01/09 12:12:52;;;;;;;4.43;1.20;;;8.90;85.60;;;;;;6214823;28;20045;-77
2022/01/09 12:15:55;;;;;;;6.50;0.70;;;9.10;85.80;;;;;;6224573;28;20046;-77
2022/01/09 12:18:58;;;;;;;2.58;0.88;;;9.10;83.60;;;;;;6213902;28;20059;-77
2022/01/09 12:22:00;;;;;;;9.02;1.30;;;8.90;84.10;;;;;;6226236;28;20414;-78
2022/01/09 12:25:02;;;;;;;8.13;1.02;;;8.70;85.10;;;;;;6224742;28;20196;-78
2022/01/09 12:28:05;;;;;;;4.70;1.00;;;8.50;85.80;;;;;;6224194;28;20038;-79
2022/01/09 12:31:08;;;;;;;4.68;1.25;;;8.30;85.40;;;;;;6224713;28;20045;-78
2022/01/09 12:34:13;;;;;;;6.57;0.90;;;8.00;86.40;;;;;;6225275;28;20129;-78
2022/01/09 12:37:15;;;;;;;5.65;1.27;;;7.90;87.10;;;;;;6225632;28;20518;-76
2022/01/09 12:40:17;;;;;;;11.25;1.60;;;8.00;88.30;;;;;;6225459;28;20103;-77
2022/01/09 12:43:23;;;;;;;6.47;2.33;;;8.00;87.50;;;;;;6216505;28;20042;-80
2022/01/09 12:46:27;;;;;;;21.77;10.13;;;8.10;87.00;;;;;;6224777;28;20046;-78
2022/01/09 12:49:28;;;;;;;5.05;2.20;;;8.20;87.60;;;;;;6224887;28;20058;-78
2022/01/09 12:52:30;;;;;;;6.25;2.45;;;8.40;86.80;;;;;;6224033;28;20061;-78
2022/01/09 12:55:32;;;;;;;7.68;3.53;;;8.50;87.80;;;;;;6223742;28;20046;-78
2022/01/09 12:58:36;;;;;;;5.57;2.05;;;8.50;88.20;;;;;;6223725;28;20129;-77
2022/01/09 13:01:43;;;;;;;6.25;1.27;;;8.40;87.10;;;;;;6223100;28;20049;-78
2022/01/09 13:04:45;;;;;;;2.15;0.60;;;8.30;88.20;;;;;;6224674;28;20054;-79
2022/01/09 13:07:47;;;;;;;9.80;2.63;;;8.10;87.50;;;;;;6223882;28;20060;-78
2022/01/09 13:10:57;;;;;;;5.72;1.88;;;7.80;89.00;;;;;;6220979;28;20724;-77
2022/01/09 13:14:01;;;;;;;5.90;1.95;;;7.70;90.30;;;;;;6208065;28;20546;-79
2022/01/09 13:17:05;;;;;;;8.90;1.48;;;7.70;91.10;;;;;;6199125;28;20066;-78
2022/01/09 13:20:18;;;;;;;7.68;1.92;;;7.80;90.90;;;;;;6199169;28;20054;-79
2022/01/09 13:23:19;;;;;;;6.55;1.20;;;7.80;91.00;;;;;;6200773;28;20073;-78
2022/01/09 13:26:22;;;;;;;4.15;0.95;;;7.70;90.60;;;;;;6199808;28;20050;-79
2022/01/09 13:29:26;;;;;;;2.35;1.00;;;7.40;89.60;;;;;;6201535;28;20050;-77
2022/01/09 13:32:30;;;;;;;4.32;1.23;;;7.30;89.80;;;;;;6199190;28;20519;-77
2022/01/09 13:35:32;;;;;;;5.53;0.68;;;7.10;90.20;;;;;;6200293;28;20050;-78
2022/01/09 13:38:34;;;;;;;2.45;0.70;;;7.10;90.70;;;;;;6205787;28;20511;-77
2022/01/09 13:41:42;;;;;;;2.42;0.77;;;7.00;91.20;;;;;;6224250;28;20525;-77
2022/01/09 13:44:45;;;;;;;2.00;1.23;;;7.00;91.30;;;;;;6232860;28;20056;-78
2022/01/09 13:47:50;;;;;;;2.47;1.02;;;6.90;91.30;;;;;;6232146;28;20088;-77
2022/01/09 13:50:52;;;;;;;1.23;0.68;;;6.90;91.40;;;;;;6225694;28;20046;-78
2022/01/09 13:54:03;;;;;;;6.10;0.75;;;6.90;91.70;;;;;;6224249;28;20128;-79
2022/01/09 13:57:10;;;;;;;3.17;0.70;;;6.90;91.50;;;;;;6222876;28;20053;-77
2022/01/09 14:00:13;;;;;;;1.45;0.85;;;6.70;91.90;;;;;;6222600;28;20064;-76
2022/01/09 14:03:26;;;;;;;7.70;0.98;;;6.70;91.80;;;;;;6225870;28;20060;-78
2022/01/09 14:06:29;;;;;;;4.38;1.63;;;6.70;92.30;;;;;;6226084;28;20045;-77
2022/01/09 14:09:34;;;;;;;5.10;2.70;;;6.80;92.30;;;;;;6222911;28;20080;-78
2022/01/09 14:12:37;;;;;;;7.97;5.00;;;6.80;92.30;;;;;;6214745;28;20129;-78
2022/01/09 14:15:40;;;;;;;15.57;8.98;;;6.90;92.20;;;;;;6223244;28;20042;-78
2022/01/09 14:18:44;;;;;;;6.10;3.70;;;7.00;92.10;;;;;;6221651;28;20054;-77
2022/01/09 14:21:52;;;;;;;6.25;2.17;;;7.00;91.80;;;;;;6223058;28;20049;-78
2022/01/09 14:25:03;;;;;;;8.65;0.85;;;7.00;91.80;;;;;;6222525;28;20042;-78
2022/01/09 14:28:09;;;;;;;6.47;3.28;;;7.00;91.70;;;;;;6222449;28;20048;-77
2022/01/09 14:31:15;;;;;;;2.22;0.68;;;6.90;91.90;;;;;;6232135;28;20038;-77
2022/01/09 14:34:18;;;;;;;2.85;0.82;;;6.80;91.60;;;;;;6227406;28;20042;-77
2022/01/09 14:37:20;;;;;;;10.65;1.35;;;6.80;92.10;;;;;;6226920;28;20049;-79
2022/01/09 14:40:22;;;;;;;2.60;1.65;;;6.70;92.00;;;;;;6226833;28;20054;-79
2022/01/09 14:43:27;;;;;;;2.63;0.88;;;6.70;91.90;;;;;;6218384;28;20128;-79
2022/01/09 14:46:29;;;;;;;5.22;1.10;;;6.80;92.30;;;;;;6226244;28;20389;-78
2022/01/09 14:49:32;;;;;;;7.10;1.52;;;6.90;92.60;;;;;;6226386;28;20054;-78
2022/01/09 14:52:34;;;;;;;5.72;0.98;;;6.90;92.30;;;;;;6226865;28;20074;-79
2022/01/09 14:55:36;;;;;;;5.60;1.27;;;7.00;92.30;;;;;;6228402;28;20085;-80
2022/01/09 14:58:39;;;;;;;174.32;53.35;;;7.00;92.00;;;;;;6230975;28;20049;-79
2022/01/09 15:01:41;;;;;;;20.52;5.88;;;7.00;91.70;;;;;;6230104;28;20415;-80
2022/01/09 15:04:44;;;;;;;3.92;0.70;;;7.00;91.90;;;;;;6229125;28;20054;-80
2022/01/09 15:07:46;;;;;;;5.10;1.10;;;7.00;91.90;;;;;;6229207;28;20499;-80
2022/01/09 15:10:48;;;;;;;3.65;1.02;;;7.10;92.20;;;;;;6225181;28;20110;-80
2022/01/09 15:13:49;;;;;;;4.35;1.80;;;7.10;91.90;;;;;;6221299;28;20044;-80
2022/01/09 15:16:51;;;;;;;8.88;3.80;;;7.10;92.10;;;;;;6230342;28;20129;-79
2022/01/09 15:19:55;;;;;;;16.55;2.55;;;7.20;92.40;;;;;;6229666;28;20122;-80
2022/01/09 15:22:58;;;;;;;7.90;3.80;;;7.00;91.80;;;;;;6229316;28;20054;-80
2022/01/09 15:26:00;;;;;;;14.68;4.43;;;6.90;92.10;;;;;;6228152;28;20050;-80
2022/01/09 15:29:02;;;;;;;7.28;2.45;;;6.80;92.40;;;;;;6223634;28;20099;-79
2022/01/09 15:32:05;;;;;;;6.93;3.42;;;6.70;92.60;;;;;;6228373;28;20041;-79
2022/01/09 15:35:08;;;;;;;4.45;1.35;;;6.50;92.60;;;;;;6229203;28;20052;-78
2022/01/09 15:38:10;;;;;;;3.83;1.27;;;6.40;92.50;;;;;;6229173;28;20419;-79
2022/01/09 15:41:12;;;;;;;3.67;1.20;;;6.30;92.40;;;;;;6227951;28;20049;-80
2022/01/09 15:44:14;;;;;;;8.73;2.05;;;6.20;92.60;;;;;;6220565;28;20492;-78
2022/01/09 15:47:16;;;;;;;8.60;2.50;;;6.10;92.80;;;;;;6223431;28;20080;-77
2022/01/09 15:50:21;;;;;;;5.85;1.35;;;6.00;92.90;;;;;;6227541;28;20045;-78
2022/01/09 15:53:23;;;;;;;8.68;1.88;;;6.00;92.90;;;;;;6228968;28;20100;-79
2022/01/09 15:56:24;;;;;;;7.00;1.35;;;5.90;93.00;;;;;;6220464;28;20052;-79
2022/01/09 15:59:26;;;;;;;10.27;1.10;;;5.80;93.00;;;;;;6203374;28;20060;-77
2022/01/09 16:02:28;;;;;;;7.25;0.98;;;5.70;93.30;;;;;;6207207;28;20042;-80